Time;durP1;ratioP1;P1;durP2;ratioP2;P2;SDS_P1;SDS_P2;PMS_P1;PMS_P2;Temp;Humidity;BMP_temperature;BMP_pressure;BME280_temperature;BME280_humidity;BME280_pressure;Samples;Min_cycle;Max_cycle;Signal;HPM_P1;HPM_P2
2023/05/26 00:17:19;;;;;;;10.73;9.70;;;16.30;99.90;;;;;;5575147;24;20769;-80
2023/05/26 00:37:55;;;;;;;11.00;8.87;;;16.20;99.90;;;;;;5904125;23;20636;-84
2023/05/26 00:42:14;;;;;;;8.53;7.73;;;16.20;99.90;;;;;;5793757;23;20478;-83
2023/05/26 01:08:04;;;;;;;8.47;7.67;;;16.00;97.70;;;;;;5904430;23;20276;-81
2023/05/26 01:38:36;;;;;;;8.70;7.50;;;15.50;99.40;;;;;;5774851;23;20211;-81
2023/05/26 01:59:01;;;;;;;8.27;7.00;;;15.30;99.80;;;;;;5734166;24;20232;-80
2023/05/26 02:19:12;;;;;;;11.93;6.30;;;15.30;96.50;;;;;;5735414;24;20302;-83
2023/05/26 02:44:37;;;;;;;8.73;5.60;;;15.50;95.20;;;;;;5933620;23;20475;-81
2023/05/26 03:09:59;;;;;;;7.30;6.27;;;15.60;95.40;;;;;;5887280;23;20235;-82
2023/05/26 03:40:19;;;;;;;10.10;6.87;;;15.90;96.20;;;;;;5964446;23;20178;-83
2023/05/26 04:10:10;;;;;;;8.37;7.20;;;16.10;94.50;;;;;;5930170;23;20203;-84
2023/05/26 04:35:56;;;;;;;9.83;5.87;;;16.70;90.90;;;;;;5767711;23;20170;-82
2023/05/26 04:56:01;;;;;;;7.27;4.67;;;17.00;86.10;;;;;;5738994;24;20635;-83
2023/05/26 05:21:51;;;;;;;6.90;4.07;;;17.00;85.10;;;;;;5660837;24;20186;-81
2023/05/26 05:47:04;;;;;;;7.80;4.60;;;18.30;83.40;;;;;;6052541;22;20155;-81
2023/05/26 06:12:06;;;;;;;9.33;5.67;;;18.40;84.20;;;;;;5675632;24;21119;-79
2023/05/26 06:53:06;;;;;;;7.20;5.10;;;18.80;83.70;;;;;;5975586;23;20378;-82
2023/05/26 07:13:26;;;;;;;7.30;5.73;;;19.60;83.10;;;;;;5707920;24;21226;-80
2023/05/26 07:53:38;;;;;;;8.57;5.80;;;20.90;79.80;;;;;;5623224;24;21184;-84
2023/05/26 08:13:54;;;;;;;12.82;5.93;;;21.90;74.50;;;;;;5874747;23;20622;-84
2023/05/26 08:39:19;;;;;;;7.32;6.22;;;21.40;75.20;;;;;;5793640;23;20667;-83
2023/05/26 09:45:27;;;;;;;9.75;6.07;;;22.40;63.70;;;;;;5643932;24;20490;-81
2023/05/26 10:26:11;;;;;;;6.22;5.07;;;22.20;58.70;;;;;;5802733;23;20212;-83
2023/05/26 10:51:29;;;;;;;7.25;4.65;;;22.40;55.10;;;;;;5824313;23;20280;-80
2023/05/26 11:11:30;;;;;;;6.80;4.47;;;22.20;52.70;;;;;;5548537;24;20824;-82
2023/05/26 11:46:38;;;;;;;7.25;4.43;;;21.90;51.90;;;;;;5528705;24;20502;-82
2023/05/26 12:22:09;;;;;;;7.85;4.10;;;22.80;51.60;;;;;;4756994;28;20206;-78
2023/05/26 12:42:49;;;;;;;5.75;3.92;;;24.30;49.10;;;;;;4610122;29;20280;-83
2023/05/26 13:03:14;;;;;;;5.00;3.30;;;22.70;47.30;;;;;;4641942;29;20751;-83
2023/05/26 13:28:51;;;;;;;4.72;2.92;;;23.40;44.40;;;;;;4563312;30;20248;-85
2023/05/26 13:54:07;;;;;;;4.88;2.90;;;25.20;46.70;;;;;;4569989;29;20249;-83
2023/05/26 16:00:57;;;;;;;5.75;3.42;;;26.30;43.30;;;;;;4713463;29;20233;-83
2023/05/26 16:30:49;;;;;;;9.38;3.38;;;21.60;43.60;;;;;;4625617;29;20520;-83
2023/05/26 16:51:29;;;;;;;5.78;3.67;;;21.30;42.00;;;;;;4598945;29;20247;-84
2023/05/26 17:21:26;;;;;;;6.88;3.72;;;21.00;41.70;;;;;;4622453;29;20605;-84
2023/05/26 18:17:42;;;;;;;5.90;3.57;;;19.40;45.40;;;;;;4553752;30;20312;-82
2023/05/26 20:04:11;;;;;;;9.97;3.80;;;15.70;42.90;;;;;;4566828;30;20243;-83
2023/05/26 21:00:09;;;;;;;11.60;4.00;;;14.10;48.50;;;;;;4659019;29;20211;-83
2023/05/26 21:20:13;;;;;;;10.10;3.63;;;13.80;56.90;;;;;;4621858;29;20501;-82
2023/05/26 21:50:37;;;;;;;7.50;3.43;;;13.30;68.10;;;;;;4797715;29;20902;-84
2023/05/26 22:10:57;;;;;;;8.93;3.73;;;13.00;71.00;;;;;;4665832;29;20210;-84
2023/05/26 22:40:57;;;;;;;10.83;3.93;;;12.30;78.80;;;;;;4574296;30;20498;-86
2023/05/26 23:01:21;;;;;;;7.97;3.63;;;11.80;80.20;;;;;;4525945;30;20454;-84
2023/05/26 23:26:56;;;;;;;11.13;3.73;;;11.30;82.40;;;;;;4631468;29;20965;-81
2023/05/26 23:57:25;;;;;;;6.53;3.73;;;10.70;85.10;;;;;;4669356;29;20521;-83
